sensor_id;sensor_type;location;lat;lon;timestamp;P1;durP1;ratioP1;P2;durP2;ratioP2
2784;SDS011;57944;48.722;9.316;2023-11-18T00:01:26;11.20;;;7.77;;
2784;SDS011;57944;48.722;9.316;2023-11-18T00:04:01;11.50;;;6.90;;
2784;SDS011;57944;48.722;9.316;2023-11-18T00:06:39;9.87;;;7.13;;
2784;SDS011;57944;48.722;9.316;2023-11-18T00:09:10;11.13;;;7.17;;
2784;SDS011;57944;48.722;9.316;2023-11-18T00:11:41;10.03;;;7.30;;
2784;SDS011;57944;48.722;9.316;2023-11-18T00:14:12;11.33;;;6.97;;
2784;SDS011;57944;48.722;9.316;2023-11-18T00:16:44;10.97;;;7.60;;
2784;SDS011;57944;48.722;9.316;2023-11-18T00:19:15;11.43;;;7.80;;
2784;SDS011;57944;48.722;9.316;2023-11-18T00:21:48;11.77;;;7.60;;
2784;SDS011;57944;48.722;9.316;2023-11-18T00:24:19;11.70;;;7.57;;
2784;SDS011;57944;48.722;9.316;2023-11-18T00:26:50;10.70;;;7.47;;
2784;SDS011;57944;48.722;9.316;2023-11-18T00:29:21;12.63;;;6.33;;
2784;SDS011;57944;48.722;9.316;2023-11-18T00:31:52;10.97;;;8.00;;
2784;SDS011;57944;48.722;9.316;2023-11-18T00:34:23;10.63;;;7.30;;
2784;SDS011;57944;48.722;9.316;2023-11-18T00:36:57;11.93;;;7.00;;
2784;SDS011;57944;48.722;9.316;2023-11-18T00:39:28;12.00;;;7.30;;
2784;SDS011;57944;48.722;9.316;2023-11-18T00:41:59;13.80;;;7.60;;
2784;SDS011;57944;48.722;9.316;2023-11-18T00:44:30;11.20;;;7.60;;
2784;SDS011;57944;48.722;9.316;2023-11-18T00:47:01;11.57;;;7.33;;
2784;SDS011;57944;48.722;9.316;2023-11-18T00:49:31;8.63;;;6.37;;
2784;SDS011;57944;48.722;9.316;2023-11-18T00:52:06;10.30;;;7.60;;
2784;SDS011;57944;48.722;9.316;2023-11-18T00:54:36;10.80;;;7.97;;
2784;SDS011;57944;48.722;9.316;2023-11-18T00:57:07;10.53;;;7.03;;
2784;SDS011;57944;48.722;9.316;2023-11-18T00:59:41;10.57;;;7.23;;
2784;SDS011;57944;48.722;9.316;2023-11-18T01:02:12;12.53;;;7.40;;
2784;SDS011;57944;48.722;9.316;2023-11-18T01:04:45;19.63;;;9.57;;
2784;SDS011;57944;48.722;9.316;2023-11-18T01:07:19;9.60;;;7.50;;
2784;SDS011;57944;48.722;9.316;2023-11-18T01:09:50;10.90;;;7.80;;
2784;SDS011;57944;48.722;9.316;2023-11-18T01:12:21;10.70;;;7.67;;
2784;SDS011;57944;48.722;9.316;2023-11-18T01:14:53;11.93;;;8.00;;
2784;SDS011;57944;48.722;9.316;2023-11-18T01:17:23;11.40;;;7.30;;
2784;SDS011;57944;48.722;9.316;2023-11-18T01:19:54;10.87;;;7.13;;
2784;SDS011;57944;48.722;9.316;2023-11-18T01:22:27;10.43;;;6.70;;
2784;SDS011;57944;48.722;9.316;2023-11-18T01:25:01;11.60;;;7.07;;
2784;SDS011;57944;48.722;9.316;2023-11-18T01:27:32;7.60;;;5.97;;
2784;SDS011;57944;48.722;9.316;2023-11-18T01:30:03;7.83;;;6.13;;
2784;SDS011;57944;48.722;9.316;2023-11-18T01:32:36;13.73;;;6.90;;
2784;SDS011;57944;48.722;9.316;2023-11-18T01:35:08;9.80;;;7.10;;
2784;SDS011;57944;48.722;9.316;2023-11-18T01:37:42;10.10;;;7.10;;
2784;SDS011;57944;48.722;9.316;2023-11-18T01:40:15;12.07;;;8.53;;
2784;SDS011;57944;48.722;9.316;2023-11-18T01:42:46;13.80;;;8.03;;
2784;SDS011;57944;48.722;9.316;2023-11-18T01:45:17;10.13;;;6.70;;
2784;SDS011;57944;48.722;9.316;2023-11-18T01:47:47;11.33;;;7.13;;
2784;SDS011;57944;48.722;9.316;2023-11-18T01:50:18;12.97;;;7.80;;
2784;SDS011;57944;48.722;9.316;2023-11-18T01:52:52;11.87;;;7.37;;
2784;SDS011;57944;48.722;9.316;2023-11-18T01:55:23;13.73;;;8.13;;
2784;SDS011;57944;48.722;9.316;2023-11-18T01:57:53;11.53;;;7.07;;
2784;SDS011;57944;48.722;9.316;2023-11-18T02:00:25;10.40;;;6.90;;
2784;SDS011;57944;48.722;9.316;2023-11-18T02:02:57;12.80;;;7.93;;
2784;SDS011;57944;48.722;9.316;2023-11-18T02:05:28;12.87;;;6.33;;
2784;SDS011;57944;48.722;9.316;2023-11-18T02:08:02;11.53;;;7.73;;
2784;SDS011;57944;48.722;9.316;2023-11-18T02:10:34;14.77;;;9.03;;
2784;SDS011;57944;48.722;9.316;2023-11-18T02:13:10;9.10;;;6.70;;
2784;SDS011;57944;48.722;9.316;2023-11-18T02:15:55;8.93;;;6.50;;
2784;SDS011;57944;48.722;9.316;2023-11-18T02:18:29;8.60;;;6.80;;
2784;SDS011;57944;48.722;9.316;2023-11-18T02:21:01;10.73;;;7.40;;
2784;SDS011;57944;48.722;9.316;2023-11-18T02:23:37;11.43;;;7.60;;
2784;SDS011;57944;48.722;9.316;2023-11-18T02:26:12;11.13;;;6.80;;
2784;SDS011;57944;48.722;9.316;2023-11-18T02:28:51;10.70;;;7.40;;
2784;SDS011;57944;48.722;9.316;2023-11-18T02:31:23;10.23;;;8.00;;
2784;SDS011;57944;48.722;9.316;2023-11-18T02:34:00;11.97;;;7.60;;
2784;SDS011;57944;48.722;9.316;2023-11-18T02:36:36;10.80;;;6.83;;
2784;SDS011;57944;48.722;9.316;2023-11-18T02:39:14;10.20;;;6.70;;
2784;SDS011;57944;48.722;9.316;2023-11-18T02:41:53;15.93;;;11.13;;
2784;SDS011;57944;48.722;9.316;2023-11-18T02:44:25;12.03;;;8.20;;
2784;SDS011;57944;48.722;9.316;2023-11-18T02:46:59;11.23;;;7.90;;
2784;SDS011;57944;48.722;9.316;2023-11-18T02:49:31;10.40;;;6.87;;
2784;SDS011;57944;48.722;9.316;2023-11-18T02:52:04;11.03;;;7.67;;
2784;SDS011;57944;48.722;9.316;2023-11-18T02:54:36;11.80;;;7.23;;
2784;SDS011;57944;48.722;9.316;2023-11-18T02:57:09;10.97;;;7.10;;
2784;SDS011;57944;48.722;9.316;2023-11-18T02:59:40;9.53;;;6.90;;
2784;SDS011;57944;48.722;9.316;2023-11-18T03:02:13;8.30;;;7.03;;
2784;SDS011;57944;48.722;9.316;2023-11-18T03:04:47;9.87;;;7.10;;
2784;SDS011;57944;48.722;9.316;2023-11-18T03:07:18;9.87;;;7.23;;
2784;SDS011;57944;48.722;9.316;2023-11-18T03:09:49;12.80;;;7.77;;
2784;SDS011;57944;48.722;9.316;2023-11-18T03:12:23;14.57;;;7.57;;
2784;SDS011;57944;48.722;9.316;2023-11-18T03:14:55;12.40;;;7.27;;
2784;SDS011;57944;48.722;9.316;2023-11-18T03:17:26;12.70;;;7.90;;
2784;SDS011;57944;48.722;9.316;2023-11-18T03:19:56;8.60;;;6.80;;
2784;SDS011;57944;48.722;9.316;2023-11-18T03:22:27;11.77;;;7.10;;
2784;SDS011;57944;48.722;9.316;2023-11-18T03:24:58;9.77;;;6.93;;
2784;SDS011;57944;48.722;9.316;2023-11-18T03:27:31;10.20;;;6.53;;
2784;SDS011;57944;48.722;9.316;2023-11-18T03:30:02;14.50;;;7.93;;
2784;SDS011;57944;48.722;9.316;2023-11-18T03:32:34;11.53;;;7.10;;
2784;SDS011;57944;48.722;9.316;2023-11-18T03:35:07;8.47;;;5.90;;
2784;SDS011;57944;48.722;9.316;2023-11-18T03:37:38;11.73;;;6.70;;
2784;SDS011;57944;48.722;9.316;2023-11-18T03:40:11;8.80;;;5.67;;
2784;SDS011;57944;48.722;9.316;2023-11-18T03:42:45;8.87;;;6.30;;
2784;SDS011;57944;48.722;9.316;2023-11-18T03:45:15;11.93;;;7.57;;
2784;SDS011;57944;48.722;9.316;2023-11-18T03:47:47;11.43;;;6.93;;
2784;SDS011;57944;48.722;9.316;2023-11-18T03:50:18;10.53;;;6.70;;
2784;SDS011;57944;48.722;9.316;2023-11-18T03:52:49;10.43;;;6.87;;
2784;SDS011;57944;48.722;9.316;2023-11-18T03:55:20;11.37;;;7.30;;
2784;SDS011;57944;48.722;9.316;2023-11-18T03:57:53;12.70;;;7.87;;
2784;SDS011;57944;48.722;9.316;2023-11-18T04:00:24;8.50;;;6.40;;
2784;SDS011;57944;48.722;9.316;2023-11-18T04:02:56;12.33;;;7.80;;
2784;SDS011;57944;48.722;9.316;2023-11-18T04:05:27;11.03;;;6.50;;
2784;SDS011;57944;48.722;9.316;2023-11-18T04:07:59;10.20;;;7.43;;
2784;SDS011;57944;48.722;9.316;2023-11-18T04:10:30;10.97;;;6.13;;
2784;SDS011;57944;48.722;9.316;2023-11-18T04:13:03;10.67;;;7.17;;
2784;SDS011;57944;48.722;9.316;2023-11-18T04:15:34;14.80;;;7.20;;
2784;SDS011;57944;48.722;9.316;2023-11-18T04:18:04;10.97;;;7.00;;
2784;SDS011;57944;48.722;9.316;2023-11-18T04:20:35;8.97;;;6.33;;
2784;SDS011;57944;48.722;9.316;2023-11-18T04:23:06;9.70;;;6.60;;
2784;SDS011;57944;48.722;9.316;2023-11-18T04:25:38;10.47;;;6.60;;
2784;SDS011;57944;48.722;9.316;2023-11-18T04:28:11;10.33;;;7.60;;
2784;SDS011;57944;48.722;9.316;2023-11-18T04:30:42;10.07;;;6.60;;
2784;SDS011;57944;48.722;9.316;2023-11-18T04:33:13;14.87;;;6.30;;
2784;SDS011;57944;48.722;9.316;2023-11-18T04:35:45;9.70;;;6.40;;
2784;SDS011;57944;48.722;9.316;2023-11-18T04:38:16;9.67;;;6.23;;
2784;SDS011;57944;48.722;9.316;2023-11-18T04:40:46;11.87;;;7.57;;
2784;SDS011;57944;48.722;9.316;2023-11-18T04:43:20;10.53;;;6.03;;
2784;SDS011;57944;48.722;9.316;2023-11-18T04:46:07;11.20;;;7.20;;
2784;SDS011;57944;48.722;9.316;2023-11-18T04:48:39;17.10;;;8.93;;
2784;SDS011;57944;48.722;9.316;2023-11-18T04:51:10;9.37;;;6.30;;
2784;SDS011;57944;48.722;9.316;2023-11-18T04:53:41;13.23;;;6.47;;
2784;SDS011;57944;48.722;9.316;2023-11-18T04:56:11;12.27;;;7.07;;
2784;SDS011;57944;48.722;9.316;2023-11-18T04:58:47;10.00;;;6.23;;
2784;SDS011;57944;48.722;9.316;2023-11-18T05:01:18;10.17;;;6.43;;
2784;SDS011;57944;48.722;9.316;2023-11-18T05:03:49;11.57;;;7.27;;
2784;SDS011;57944;48.722;9.316;2023-11-18T05:06:19;9.50;;;6.43;;
2784;SDS011;57944;48.722;9.316;2023-11-18T05:08:50;10.93;;;7.57;;
2784;SDS011;57944;48.722;9.316;2023-11-18T05:11:21;9.13;;;5.80;;
2784;SDS011;57944;48.722;9.316;2023-11-18T05:13:54;9.20;;;5.93;;
2784;SDS011;57944;48.722;9.316;2023-11-18T05:16:25;9.63;;;6.20;;
2784;SDS011;57944;48.722;9.316;2023-11-18T05:18:56;11.20;;;7.47;;
2784;SDS011;57944;48.722;9.316;2023-11-18T05:21:27;8.90;;;7.00;;
2784;SDS011;57944;48.722;9.316;2023-11-18T05:23:58;11.87;;;7.50;;
2784;SDS011;57944;48.722;9.316;2023-11-18T05:26:29;11.60;;;7.00;;
2784;SDS011;57944;48.722;9.316;2023-11-18T05:29:04;13.00;;;7.80;;
2784;SDS011;57944;48.722;9.316;2023-11-18T05:31:34;11.87;;;7.13;;
2784;SDS011;57944;48.722;9.316;2023-11-18T05:34:05;9.67;;;6.33;;
2784;SDS011;57944;48.722;9.316;2023-11-18T05:36:35;8.03;;;5.90;;
2784;SDS011;57944;48.722;9.316;2023-11-18T05:39:07;10.00;;;6.43;;
2784;SDS011;57944;48.722;9.316;2023-11-18T05:41:38;8.47;;;5.73;;
2784;SDS011;57944;48.722;9.316;2023-11-18T05:44:14;8.73;;;6.07;;
2784;SDS011;57944;48.722;9.316;2023-11-18T05:46:48;9.07;;;7.20;;
2784;SDS011;57944;48.722;9.316;2023-11-18T05:49:19;10.23;;;6.20;;
2784;SDS011;57944;48.722;9.316;2023-11-18T05:51:51;11.97;;;7.40;;
2784;SDS011;57944;48.722;9.316;2023-11-18T05:54:21;9.50;;;6.90;;
2784;SDS011;57944;48.722;9.316;2023-11-18T05:56:52;9.87;;;7.37;;
2784;SDS011;57944;48.722;9.316;2023-11-18T05:59:28;11.97;;;6.93;;
2784;SDS011;57944;48.722;9.316;2023-11-18T06:01:59;9.27;;;5.83;;
2784;SDS011;57944;48.722;9.316;2023-11-18T06:04:30;12.53;;;7.03;;
2784;SDS011;57944;48.722;9.316;2023-11-18T06:07:01;10.40;;;7.17;;
2784;SDS011;57944;48.722;9.316;2023-11-18T06:09:32;11.90;;;7.30;;
2784;SDS011;57944;48.722;9.316;2023-11-18T06:12:03;9.23;;;6.63;;
2784;SDS011;57944;48.722;9.316;2023-11-18T06:14:38;13.10;;;6.83;;
2784;SDS011;57944;48.722;9.316;2023-11-18T06:17:08;9.40;;;6.87;;
2784;SDS011;57944;48.722;9.316;2023-11-18T06:19:39;13.20;;;6.90;;
2784;SDS011;57944;48.722;9.316;2023-11-18T06:22:10;9.53;;;6.60;;
2784;SDS011;57944;48.722;9.316;2023-11-18T06:24:41;9.70;;;6.10;;
2784;SDS011;57944;48.722;9.316;2023-11-18T06:27:12;14.03;;;6.90;;
2784;SDS011;57944;48.722;9.316;2023-11-18T06:29:46;11.63;;;7.00;;
2784;SDS011;57944;48.722;9.316;2023-11-18T06:32:21;10.80;;;6.47;;
2784;SDS011;57944;48.722;9.316;2023-11-18T06:34:52;14.13;;;7.03;;
2784;SDS011;57944;48.722;9.316;2023-11-18T06:37:23;10.70;;;6.63;;
2784;SDS011;57944;48.722;9.316;2023-11-18T06:39:53;12.53;;;6.87;;
2784;SDS011;57944;48.722;9.316;2023-11-18T06:42:24;11.97;;;8.30;;
2784;SDS011;57944;48.722;9.316;2023-11-18T06:44:58;11.33;;;7.30;;
2784;SDS011;57944;48.722;9.316;2023-11-18T06:47:29;12.10;;;7.80;;
2784;SDS011;57944;48.722;9.316;2023-11-18T06:50:01;9.10;;;7.17;;
2784;SDS011;57944;48.722;9.316;2023-11-18T06:52:36;12.93;;;8.30;;
2784;SDS011;57944;48.722;9.316;2023-11-18T06:55:10;13.57;;;7.63;;
2784;SDS011;57944;48.722;9.316;2023-11-18T06:57:41;11.70;;;8.20;;
2784;SDS011;57944;48.722;9.316;2023-11-18T07:00:15;13.73;;;8.20;;
2784;SDS011;57944;48.722;9.316;2023-11-18T07:02:48;18.37;;;8.63;;
2784;SDS011;57944;48.722;9.316;2023-11-18T07:05:20;15.13;;;9.10;;
2784;SDS011;57944;48.722;9.316;2023-11-18T07:07:51;14.70;;;9.20;;
2784;SDS011;57944;48.722;9.316;2023-11-18T07:10:21;19.37;;;9.13;;
2784;SDS011;57944;48.722;9.316;2023-11-18T07:12:54;11.80;;;8.03;;
2784;SDS011;57944;48.722;9.316;2023-11-18T07:15:28;14.20;;;9.47;;
2784;SDS011;57944;48.722;9.316;2023-11-18T07:17:59;12.13;;;8.33;;
2784;SDS011;57944;48.722;9.316;2023-11-18T07:20:30;12.57;;;8.77;;
2784;SDS011;57944;48.722;9.316;2023-11-18T07:23:00;16.87;;;9.30;;
2784;SDS011;57944;48.722;9.316;2023-11-18T07:25:31;14.03;;;9.20;;
2784;SDS011;57944;48.722;9.316;2023-11-18T07:28:02;19.53;;;11.13;;
2784;SDS011;57944;48.722;9.316;2023-11-18T07:30:38;13.30;;;9.30;;
2784;SDS011;57944;48.722;9.316;2023-11-18T07:33:09;19.07;;;9.60;;
2784;SDS011;57944;48.722;9.316;2023-11-18T07:35:39;15.73;;;10.80;;
2784;SDS011;57944;48.722;9.316;2023-11-18T07:38:10;19.00;;;12.10;;
2784;SDS011;57944;48.722;9.316;2023-11-18T07:40:41;19.40;;;12.80;;
2784;SDS011;57944;48.722;9.316;2023-11-18T07:43:12;23.20;;;11.83;;
2784;SDS011;57944;48.722;9.316;2023-11-18T07:45:46;27.63;;;17.67;;
2784;SDS011;57944;48.722;9.316;2023-11-18T07:48:19;18.43;;;11.47;;
2784;SDS011;57944;48.722;9.316;2023-11-18T07:50:50;14.03;;;8.17;;
2784;SDS011;57944;48.722;9.316;2023-11-18T07:53:21;20.40;;;10.80;;
2784;SDS011;57944;48.722;9.316;2023-11-18T07:55:52;16.80;;;9.80;;
2784;SDS011;57944;48.722;9.316;2023-11-18T07:58:22;15.73;;;11.23;;
2784;SDS011;57944;48.722;9.316;2023-11-18T08:00:56;14.90;;;8.70;;
2784;SDS011;57944;48.722;9.316;2023-11-18T08:03:27;13.77;;;8.70;;
2784;SDS011;57944;48.722;9.316;2023-11-18T08:05:57;13.13;;;8.87;;
2784;SDS011;57944;48.722;9.316;2023-11-18T08:08:28;19.07;;;10.90;;
2784;SDS011;57944;48.722;9.316;2023-11-18T08:10:59;11.00;;;6.57;;
2784;SDS011;57944;48.722;9.316;2023-11-18T08:13:31;13.63;;;6.43;;
2784;SDS011;57944;48.722;9.316;2023-11-18T08:16:04;16.60;;;8.90;;
2784;SDS011;57944;48.722;9.316;2023-11-18T08:18:36;12.67;;;7.67;;
2784;SDS011;57944;48.722;9.316;2023-11-18T08:21:07;12.57;;;9.47;;
2784;SDS011;57944;48.722;9.316;2023-11-18T08:23:39;20.70;;;10.13;;
2784;SDS011;57944;48.722;9.316;2023-11-18T08:26:11;16.70;;;7.97;;
2784;SDS011;57944;48.722;9.316;2023-11-18T08:28:41;11.07;;;7.30;;
2784;SDS011;57944;48.722;9.316;2023-11-18T08:31:15;12.10;;;9.73;;
2784;SDS011;57944;48.722;9.316;2023-11-18T08:33:46;12.50;;;10.00;;
2784;SDS011;57944;48.722;9.316;2023-11-18T08:36:16;26.40;;;19.40;;
2784;SDS011;57944;48.722;9.316;2023-11-18T08:38:47;12.87;;;8.83;;
2784;SDS011;57944;48.722;9.316;2023-11-18T08:41:17;12.30;;;8.70;;
2784;SDS011;57944;48.722;9.316;2023-11-18T08:43:48;12.67;;;7.43;;
2784;SDS011;57944;48.722;9.316;2023-11-18T08:46:22;12.33;;;8.90;;
2784;SDS011;57944;48.722;9.316;2023-11-18T08:48:54;14.03;;;8.87;;
2784;SDS011;57944;48.722;9.316;2023-11-18T08:51:24;8.70;;;6.97;;
2784;SDS011;57944;48.722;9.316;2023-11-18T08:53:55;11.40;;;7.10;;
2784;SDS011;57944;48.722;9.316;2023-11-18T08:56:26;12.70;;;9.27;;
2784;SDS011;57944;48.722;9.316;2023-11-18T08:59:01;12.87;;;9.17;;
2784;SDS011;57944;48.722;9.316;2023-11-18T09:01:38;9.53;;;7.43;;
2784;SDS011;57944;48.722;9.316;2023-11-18T09:04:13;10.10;;;8.13;;
2784;SDS011;57944;48.722;9.316;2023-11-18T09:06:46;12.47;;;8.10;;
2784;SDS011;57944;48.722;9.316;2023-11-18T09:09:18;38.10;;;9.17;;
2784;SDS011;57944;48.722;9.316;2023-11-18T09:11:53;12.63;;;7.40;;
2784;SDS011;57944;48.722;9.316;2023-11-18T09:14:24;12.53;;;8.57;;
2784;SDS011;57944;48.722;9.316;2023-11-18T09:16:58;14.97;;;8.50;;
2784;SDS011;57944;48.722;9.316;2023-11-18T09:19:28;10.50;;;7.67;;
2784;SDS011;57944;48.722;9.316;2023-11-18T09:21:59;9.97;;;6.13;;
2784;SDS011;57944;48.722;9.316;2023-11-18T09:24:32;15.10;;;10.40;;
2784;SDS011;57944;48.722;9.316;2023-11-18T09:27:03;10.10;;;6.53;;
2784;SDS011;57944;48.722;9.316;2023-11-18T09:29:35;9.50;;;6.43;;
2784;SDS011;57944;48.722;9.316;2023-11-18T09:32:09;8.67;;;5.80;;
2784;SDS011;57944;48.722;9.316;2023-11-18T09:34:41;7.50;;;5.20;;
2784;SDS011;57944;48.722;9.316;2023-11-18T09:37:13;10.60;;;6.07;;
2784;SDS011;57944;48.722;9.316;2023-11-18T09:39:43;6.60;;;5.57;;
2784;SDS011;57944;48.722;9.316;2023-11-18T09:42:19;7.60;;;5.90;;
2784;SDS011;57944;48.722;9.316;2023-11-18T09:44:50;8.40;;;6.17;;
2784;SDS011;57944;48.722;9.316;2023-11-18T09:47:24;7.50;;;5.93;;
2784;SDS011;57944;48.722;9.316;2023-11-18T09:49:55;6.80;;;4.60;;
2784;SDS011;57944;48.722;9.316;2023-11-18T09:52:30;7.43;;;3.97;;
2784;SDS011;57944;48.722;9.316;2023-11-18T09:55:03;5.53;;;3.63;;
2784;SDS011;57944;48.722;9.316;2023-11-18T09:57:43;5.90;;;3.10;;
2784;SDS011;57944;48.722;9.316;2023-11-18T10:00:24;4.13;;;3.00;;
2784;SDS011;57944;48.722;9.316;2023-11-18T10:03:02;3.93;;;2.70;;
2784;SDS011;57944;48.722;9.316;2023-11-18T10:05:35;6.67;;;4.80;;
2784;SDS011;57944;48.722;9.316;2023-11-18T10:08:09;4.20;;;3.17;;
2784;SDS011;57944;48.722;9.316;2023-11-18T10:10:45;9.20;;;3.63;;
2784;SDS011;57944;48.722;9.316;2023-11-18T10:13:16;6.97;;;3.07;;
2784;SDS011;57944;48.722;9.316;2023-11-18T10:15:51;5.80;;;4.47;;
2784;SDS011;57944;48.722;9.316;2023-11-18T10:18:26;8.30;;;5.77;;
2784;SDS011;57944;48.722;9.316;2023-11-18T10:21:02;10.77;;;4.97;;
2784;SDS011;57944;48.722;9.316;2023-11-18T10:23:34;7.30;;;3.33;;
2784;SDS011;57944;48.722;9.316;2023-11-18T10:26:05;6.10;;;2.80;;
2784;SDS011;57944;48.722;9.316;2023-11-18T10:28:36;15.23;;;4.47;;
2784;SDS011;57944;48.722;9.316;2023-11-18T10:31:07;6.20;;;3.00;;
2784;SDS011;57944;48.722;9.316;2023-11-18T10:33:44;4.53;;;3.00;;
2784;SDS011;57944;48.722;9.316;2023-11-18T10:36:18;5.67;;;3.67;;
2784;SDS011;57944;48.722;9.316;2023-11-18T10:38:52;5.43;;;2.90;;
2784;SDS011;57944;48.722;9.316;2023-11-18T10:41:23;5.47;;;3.23;;
2784;SDS011;57944;48.722;9.316;2023-11-18T10:44:06;4.60;;;3.50;;
2784;SDS011;57944;48.722;9.316;2023-11-18T10:46:42;5.93;;;2.73;;
2784;SDS011;57944;48.722;9.316;2023-11-18T10:49:29;4.53;;;2.97;;
2784;SDS011;57944;48.722;9.316;2023-11-18T10:52:07;7.80;;;3.00;;
2784;SDS011;57944;48.722;9.316;2023-11-18T10:54:42;7.50;;;3.73;;
2784;SDS011;57944;48.722;9.316;2023-11-18T10:57:21;4.63;;;3.20;;
2784;SDS011;57944;48.722;9.316;2023-11-18T10:59:59;4.93;;;2.90;;
2784;SDS011;57944;48.722;9.316;2023-11-18T11:02:40;5.93;;;2.93;;
2784;SDS011;57944;48.722;9.316;2023-11-18T11:05:13;5.07;;;3.53;;
2784;SDS011;57944;48.722;9.316;2023-11-18T11:08:00;8.23;;;4.00;;
2784;SDS011;57944;48.722;9.316;2023-11-18T11:10:32;4.07;;;2.93;;
2784;SDS011;57944;48.722;9.316;2023-11-18T11:13:07;6.53;;;3.60;;
2784;SDS011;57944;48.722;9.316;2023-11-18T11:15:40;7.67;;;4.40;;
2784;SDS011;57944;48.722;9.316;2023-11-18T11:18:22;6.20;;;3.77;;
2784;SDS011;57944;48.722;9.316;2023-11-18T11:21:06;15.50;;;8.37;;
2784;SDS011;57944;48.722;9.316;2023-11-18T11:23:46;7.43;;;3.27;;
2784;SDS011;57944;48.722;9.316;2023-11-18T11:26:26;6.63;;;3.63;;
2784;SDS011;57944;48.722;9.316;2023-11-18T11:29:14;6.97;;;4.03;;
2784;SDS011;57944;48.722;9.316;2023-11-18T11:31:59;7.90;;;2.53;;
2784;SDS011;57944;48.722;9.316;2023-11-18T11:34:39;7.10;;;3.37;;
2784;SDS011;57944;48.722;9.316;2023-11-18T11:37:16;5.30;;;2.60;;
2784;SDS011;57944;48.722;9.316;2023-11-18T11:39:48;5.27;;;3.10;;
2784;SDS011;57944;48.722;9.316;2023-11-18T11:42:21;4.20;;;2.70;;
2784;SDS011;57944;48.722;9.316;2023-11-18T11:44:53;4.67;;;3.10;;
2784;SDS011;57944;48.722;9.316;2023-11-18T11:47:25;6.50;;;4.40;;
2784;SDS011;57944;48.722;9.316;2023-11-18T11:50:06;16.23;;;4.53;;
2784;SDS011;57944;48.722;9.316;2023-11-18T11:52:51;9.37;;;3.87;;
2784;SDS011;57944;48.722;9.316;2023-11-18T11:55:33;24.27;;;5.60;;
2784;SDS011;57944;48.722;9.316;2023-11-18T11:58:25;6.40;;;3.73;;
2784;SDS011;57944;48.722;9.316;2023-11-18T12:00:58;7.43;;;3.43;;
2784;SDS011;57944;48.722;9.316;2023-11-18T12:03:38;9.93;;;4.87;;
2784;SDS011;57944;48.722;9.316;2023-11-18T12:06:12;9.63;;;4.27;;
2784;SDS011;57944;48.722;9.316;2023-11-18T12:08:45;9.20;;;4.93;;
2784;SDS011;57944;48.722;9.316;2023-11-18T12:11:17;15.53;;;4.00;;
2784;SDS011;57944;48.722;9.316;2023-11-18T12:14:02;8.83;;;3.57;;
2784;SDS011;57944;48.722;9.316;2023-11-18T12:19:35;17.37;;;5.23;;
2784;SDS011;57944;48.722;9.316;2023-11-18T12:22:12;8.13;;;5.03;;
2784;SDS011;57944;48.722;9.316;2023-11-18T12:28:09;7.90;;;5.70;;
2784;SDS011;57944;48.722;9.316;2023-11-18T12:30:42;8.93;;;4.70;;
2784;SDS011;57944;48.722;9.316;2023-11-18T12:33:23;6.90;;;4.50;;
2784;SDS011;57944;48.722;9.316;2023-11-18T12:39:27;5.00;;;3.30;;
2784;SDS011;57944;48.722;9.316;2023-11-18T12:42:20;6.70;;;5.10;;
2784;SDS011;57944;48.722;9.316;2023-11-18T12:45:42;6.13;;;3.53;;
2784;SDS011;57944;48.722;9.316;2023-11-18T12:48:32;4.77;;;3.37;;
2784;SDS011;57944;48.722;9.316;2023-11-18T12:51:06;7.33;;;4.67;;
2784;SDS011;57944;48.722;9.316;2023-11-18T12:53:48;10.40;;;4.20;;
2784;SDS011;57944;48.722;9.316;2023-11-18T12:56:20;9.10;;;4.73;;
2784;SDS011;57944;48.722;9.316;2023-11-18T12:58:52;7.63;;;4.37;;
2784;SDS011;57944;48.722;9.316;2023-11-18T13:01:25;7.67;;;4.70;;
2784;SDS011;57944;48.722;9.316;2023-11-18T13:04:00;8.90;;;6.77;;
2784;SDS011;57944;48.722;9.316;2023-11-18T13:06:31;9.70;;;5.60;;
2784;SDS011;57944;48.722;9.316;2023-11-18T13:09:02;5.93;;;4.03;;
2784;SDS011;57944;48.722;9.316;2023-11-18T13:11:36;8.73;;;5.20;;
2784;SDS011;57944;48.722;9.316;2023-11-18T13:14:09;5.00;;;3.90;;
2784;SDS011;57944;48.722;9.316;2023-11-18T13:16:43;6.60;;;4.70;;
2784;SDS011;57944;48.722;9.316;2023-11-18T13:19:23;9.90;;;7.27;;
2784;SDS011;57944;48.722;9.316;2023-11-18T13:21:57;12.77;;;6.23;;
2784;SDS011;57944;48.722;9.316;2023-11-18T13:24:30;8.20;;;6.30;;
2784;SDS011;57944;48.722;9.316;2023-11-18T13:27:04;8.00;;;5.23;;
2784;SDS011;57944;48.722;9.316;2023-11-18T13:29:37;7.93;;;4.73;;
2784;SDS011;57944;48.722;9.316;2023-11-18T13:32:12;7.53;;;5.50;;
2784;SDS011;57944;48.722;9.316;2023-11-18T13:34:43;7.23;;;5.60;;
2784;SDS011;57944;48.722;9.316;2023-11-18T13:37:13;9.23;;;5.73;;
2784;SDS011;57944;48.722;9.316;2023-11-18T13:39:53;12.17;;;5.97;;
2784;SDS011;57944;48.722;9.316;2023-11-18T13:42:25;7.20;;;5.53;;
2784;SDS011;57944;48.722;9.316;2023-11-18T13:44:58;12.20;;;5.67;;
2784;SDS011;57944;48.722;9.316;2023-11-18T13:47:36;8.37;;;5.83;;
2784;SDS011;57944;48.722;9.316;2023-11-18T13:50:12;13.73;;;8.50;;
2784;SDS011;57944;48.722;9.316;2023-11-18T13:52:44;12.80;;;7.80;;
2784;SDS011;57944;48.722;9.316;2023-11-18T13:55:15;11.50;;;8.33;;
2784;SDS011;57944;48.722;9.316;2023-11-18T13:57:54;14.80;;;8.57;;
2784;SDS011;57944;48.722;9.316;2023-11-18T14:00:26;10.30;;;6.93;;
2784;SDS011;57944;48.722;9.316;2023-11-18T14:03:01;10.93;;;7.63;;
2784;SDS011;57944;48.722;9.316;2023-11-18T14:05:34;9.53;;;6.63;;
2784;SDS011;57944;48.722;9.316;2023-11-18T14:08:05;6.50;;;5.50;;
2784;SDS011;57944;48.722;9.316;2023-11-18T14:10:39;11.47;;;7.33;;
2784;SDS011;57944;48.722;9.316;2023-11-18T14:13:14;13.83;;;8.93;;
2784;SDS011;57944;48.722;9.316;2023-11-18T14:15:46;15.43;;;10.43;;
2784;SDS011;57944;48.722;9.316;2023-11-18T14:18:24;13.77;;;8.47;;
2784;SDS011;57944;48.722;9.316;2023-11-18T14:20:55;9.03;;;6.40;;
2784;SDS011;57944;48.722;9.316;2023-11-18T14:23:27;10.17;;;6.73;;
2784;SDS011;57944;48.722;9.316;2023-11-18T14:25:58;7.60;;;5.33;;
2784;SDS011;57944;48.722;9.316;2023-11-18T14:28:29;7.00;;;5.17;;
2784;SDS011;57944;48.722;9.316;2023-11-18T14:31:01;7.70;;;5.93;;
2784;SDS011;57944;48.722;9.316;2023-11-18T14:33:37;9.60;;;5.50;;
2784;SDS011;57944;48.722;9.316;2023-11-18T14:36:08;11.70;;;6.10;;
2784;SDS011;57944;48.722;9.316;2023-11-18T14:38:39;7.83;;;5.13;;
2784;SDS011;57944;48.722;9.316;2023-11-18T14:41:11;7.33;;;5.37;;
2784;SDS011;57944;48.722;9.316;2023-11-18T14:43:42;9.17;;;4.87;;
2784;SDS011;57944;48.722;9.316;2023-11-18T14:46:13;8.53;;;5.33;;
2784;SDS011;57944;48.722;9.316;2023-11-18T14:48:47;6.87;;;4.47;;
2784;SDS011;57944;48.722;9.316;2023-11-18T14:51:18;8.33;;;5.70;;
2784;SDS011;57944;48.722;9.316;2023-11-18T14:53:49;9.60;;;5.23;;
2784;SDS011;57944;48.722;9.316;2023-11-18T14:56:20;12.63;;;6.40;;
2784;SDS011;57944;48.722;9.316;2023-11-18T14:58:50;10.30;;;5.30;;
2784;SDS011;57944;48.722;9.316;2023-11-18T15:01:21;8.87;;;6.70;;
2784;SDS011;57944;48.722;9.316;2023-11-18T15:03:55;15.20;;;6.63;;
2784;SDS011;57944;48.722;9.316;2023-11-18T15:06:26;7.93;;;5.57;;
2784;SDS011;57944;48.722;9.316;2023-11-18T15:08:57;8.20;;;5.80;;
2784;SDS011;57944;48.722;9.316;2023-11-18T15:11:30;8.70;;;5.73;;
2784;SDS011;57944;48.722;9.316;2023-11-18T15:14:01;9.00;;;6.03;;
2784;SDS011;57944;48.722;9.316;2023-11-18T15:16:34;9.37;;;6.10;;
2784;SDS011;57944;48.722;9.316;2023-11-18T15:19:07;7.97;;;5.90;;
2784;SDS011;57944;48.722;9.316;2023-11-18T15:21:39;11.73;;;7.37;;
2784;SDS011;57944;48.722;9.316;2023-11-18T15:24:10;9.80;;;6.40;;
2784;SDS011;57944;48.722;9.316;2023-11-18T15:26:41;8.20;;;5.50;;
2784;SDS011;57944;48.722;9.316;2023-11-18T15:29:15;10.10;;;6.90;;
2784;SDS011;57944;48.722;9.316;2023-11-18T15:31:45;12.30;;;6.30;;
2784;SDS011;57944;48.722;9.316;2023-11-18T15:34:18;6.73;;;4.30;;
2784;SDS011;57944;48.722;9.316;2023-11-18T15:36:49;7.23;;;4.57;;
2784;SDS011;57944;48.722;9.316;2023-11-18T15:39:20;8.10;;;5.53;;